createdAt,value
2023-03-25T00:19:21.859Z,13.37
2023-03-25T00:24:25.526Z,13.44
2023-03-25T00:29:29.235Z,12.89
2023-03-25T00:34:34.538Z,12.88
2023-03-25T00:39:38.434Z,12.95
2023-03-25T00:44:42.217Z,12.88
2023-03-25T00:49:47.488Z,12.79
2023-03-25T00:54:51.139Z,12.72
2023-03-25T00:59:54.780Z,12.76
2023-03-25T01:05:00.071Z,13.02
2023-03-25T01:10:04.154Z,13.10
2023-03-25T01:15:10.573Z,13.12
2023-03-25T01:20:15.909Z,13.24
2023-03-25T01:25:20.492Z,13.10
2023-03-25T01:30:24.120Z,12.85
2023-03-25T01:35:29.399Z,12.69
2023-03-25T01:40:33.116Z,12.66
2023-03-25T01:45:36.802Z,12.41
2023-03-25T01:50:45.778Z,11.94
2023-03-25T01:55:50.505Z,11.89
2023-03-25T02:00:55.655Z,11.65
2023-03-25T02:06:03.296Z,11.54
2023-03-25T02:11:07.942Z,11.30
2023-03-25T02:16:27.574Z,11.28
2023-03-25T02:22:10.026Z,11.10
2023-03-25T02:27:25.672Z,11.03
2023-03-25T02:32:47.815Z,10.88
2023-03-25T02:38:26.421Z,10.89
2023-03-25T02:43:33.394Z,10.63
2023-03-25T02:48:41.795Z,10.50
2023-03-25T02:53:49.922Z,10.45
2023-03-25T02:58:56.300Z,10.36
2023-03-25T03:03:59.921Z,10.31
2023-03-25T03:09:18.279Z,10.34
2023-03-25T03:14:44.376Z,10.00
2023-03-25T03:19:51.643Z,10.12
2023-03-25T03:25:02.781Z,9.97
2023-03-25T03:30:11.996Z,9.87
2023-03-25T03:35:20.355Z,9.96
2023-03-25T03:40:28.147Z,9.80
2023-03-25T03:45:37.012Z,9.70
2023-03-25T03:50:44.451Z,9.65
2023-03-25T03:55:53.504Z,9.59
2023-03-25T04:01:03.937Z,9.45
2023-03-25T04:06:14.616Z,9.33
2023-03-25T04:11:23.683Z,9.39
2023-03-25T04:16:27.424Z,9.34
2023-03-25T04:21:31.126Z,9.40
2023-03-25T04:26:36.596Z,9.33
2023-03-25T04:31:40.394Z,9.52
2023-03-25T04:36:44.088Z,9.47
2023-03-25T04:41:49.838Z,9.46
2023-03-25T04:46:53.917Z,9.42
2023-03-25T04:51:57.533Z,9.53
2023-03-25T04:57:02.846Z,9.38
2023-03-25T05:02:07.482Z,9.70
2023-03-25T05:07:11.098Z,9.71
2023-03-25T05:12:16.426Z,9.54
2023-03-25T05:17:20.034Z,9.47
2023-03-25T05:22:23.670Z,9.47
2023-03-25T05:27:29.333Z,9.39
2023-03-25T05:32:33.060Z,9.47
2023-03-25T05:37:36.799Z,9.51
2023-03-25T05:42:42.117Z,9.39
2023-03-25T05:47:45.844Z,9.47
2023-03-25T05:52:49.835Z,9.59
2023-03-25T05:57:55.116Z,9.52
2023-03-25T06:02:58.887Z,9.28
2023-03-25T06:08:02.595Z,9.41
2023-03-25T06:13:07.888Z,9.49
2023-03-25T06:18:11.585Z,9.14
2023-03-25T06:23:15.255Z,9.18
2023-03-25T06:28:20.903Z,9.52
2023-03-25T06:33:42.788Z,9.56
2023-03-25T06:38:48.263Z,9.47
2023-03-25T06:43:54.541Z,9.50
2023-03-25T06:48:57.387Z,9.55
2023-03-25T06:54:01.060Z,9.54
2023-03-25T06:59:06.642Z,9.62
2023-03-25T07:04:10.288Z,9.46
2023-03-25T07:09:13.972Z,9.52
2023-03-25T07:14:19.277Z,9.51
2023-03-25T07:19:23.036Z,9.49
2023-03-25T07:24:26.696Z,9.16
2023-03-25T07:29:31.982Z,9.12
2023-03-25T07:34:35.716Z,9.30
2023-03-25T07:39:39.321Z,9.36
2023-03-25T07:44:45.593Z,9.46
2023-03-25T07:49:48.493Z,9.43
2023-03-25T07:54:52.105Z,9.49
2023-03-25T07:59:57.409Z,9.34
2023-03-25T08:05:03.265Z,9.40
2023-03-25T08:10:09.371Z,9.39
2023-03-25T08:15:15.060Z,9.44
2023-03-25T08:20:18.813Z,9.48
2023-03-25T08:25:22.534Z,9.30
2023-03-25T08:30:27.897Z,9.10
2023-03-25T08:35:31.634Z,8.99
2023-03-25T08:40:35.876Z,8.79
2023-03-25T08:45:41.191Z,8.68
2023-03-25T08:50:45.015Z,8.64
2023-03-25T08:55:51.289Z,8.75
2023-03-25T09:00:58.328Z,8.46
2023-03-25T09:06:05.629Z,8.47
2023-03-25T09:11:09.265Z,8.58
2023-03-25T09:16:14.546Z,8.38
2023-03-25T09:21:18.188Z,8.33
2023-03-25T09:26:21.815Z,8.42
2023-03-25T09:31:27.400Z,8.44
2023-03-25T09:36:31.086Z,8.43
2023-03-25T09:42:02.863Z,8.52
2023-03-25T09:47:14.940Z,8.37
2023-03-25T09:52:24.798Z,8.32
2023-03-25T09:57:33.308Z,8.18
2023-03-25T10:02:43.612Z,8.37
2023-03-25T10:07:59.670Z,8.24
2023-03-25T10:13:13.871Z,8.11
2023-03-25T10:18:38.379Z,8.09
2023-03-25T10:23:47.254Z,8.07
2023-03-25T10:28:53.872Z,8.25
2023-03-25T10:34:03.254Z,8.12
2023-03-25T10:39:16.172Z,8.10
2023-03-25T10:44:21.855Z,8.29
2023-03-25T10:49:30.616Z,8.04
2023-03-25T10:54:40.162Z,8.00
2023-03-25T10:59:50.221Z,8.07
2023-03-25T11:04:59.291Z,7.89
2023-03-25T11:10:16.919Z,7.90
2023-03-25T11:15:23.221Z,7.98
2023-03-25T11:20:29.701Z,7.82
2023-03-25T11:25:37.879Z,7.75
2023-03-25T11:31:12.267Z,7.53
2023-03-25T11:36:27.958Z,7.52
2023-03-25T11:41:34.968Z,7.52
2023-03-25T11:46:43.860Z,7.57
2023-03-25T11:51:50.707Z,7.49
2023-03-25T11:56:56.711Z,7.46
2023-03-25T12:02:09.329Z,7.44
2023-03-25T12:07:19.831Z,7.62
2023-03-25T12:12:43.147Z,7.33
2023-03-25T12:17:57.204Z,7.43
2023-03-25T12:23:15.376Z,7.40
2023-03-25T12:29:09.266Z,7.57
2023-03-25T12:34:27.623Z,7.65
2023-03-25T12:39:48.595Z,7.56
2023-03-25T12:45:07.820Z,7.36
2023-03-25T12:50:25.635Z,7.31
2023-03-25T12:55:45.381Z,7.22
2023-03-25T13:00:56.794Z,7.13
2023-03-25T13:06:04.683Z,7.02
2023-03-25T13:11:16.010Z,7.02
2023-03-25T13:16:22.410Z,6.85
2023-03-25T13:21:28.005Z,6.78
2023-03-25T13:26:33.656Z,6.54
2023-03-25T13:31:39.832Z,6.63
2023-03-25T13:36:46.010Z,6.63
2023-03-25T13:41:56.060Z,6.68
2023-03-25T13:47:06.235Z,6.61
2023-03-25T13:52:10.298Z,6.72
2023-03-25T13:57:57.818Z,6.55
2023-03-25T14:03:32.273Z,6.55
2023-03-25T14:09:25.001Z,6.63
2023-03-25T14:14:29.887Z,6.59
2023-03-25T14:19:38.591Z,6.61
2023-03-25T14:24:42.443Z,6.63
2023-03-25T14:29:48.292Z,6.74
2023-03-25T14:34:53.694Z,6.86
2023-03-25T14:40:00.004Z,7.10
2023-03-25T14:45:38.751Z,7.41
2023-03-25T14:50:45.565Z,7.72
2023-03-25T14:55:49.343Z,8.05
2023-03-25T15:00:56.684Z,8.86
2023-03-25T15:06:02.162Z,9.03
2023-03-25T15:11:09.225Z,9.06
2023-03-25T15:16:20.158Z,9.40
2023-03-25T15:21:26.650Z,9.63
2023-03-25T15:26:31.854Z,9.95
2023-03-25T15:31:56.686Z,10.10
2023-03-25T15:37:39.344Z,10.31
2023-03-25T15:43:15.419Z,10.67
2023-03-25T15:48:55.205Z,11.03
2023-03-25T15:54:20.541Z,11.50
2023-03-25T15:59:33.289Z,11.41
2023-03-25T16:04:41.672Z,12.27
2023-03-25T16:09:49.187Z,12.87
2023-03-25T16:14:53.418Z,13.39
2023-03-25T16:19:58.156Z,13.55
2023-03-25T16:25:05.093Z,13.92
2023-03-25T16:30:21.100Z,14.39
2023-03-25T16:35:28.814Z,14.49
2023-03-25T16:40:37.982Z,14.80
2023-03-25T16:45:45.040Z,15.14
2023-03-25T16:50:49.687Z,15.26
2023-03-25T16:55:58.630Z,15.34
2023-03-25T17:01:03.967Z,15.41
2023-03-25T17:06:18.569Z,15.66
2023-03-25T17:11:26.915Z,16.03
2023-03-25T17:16:33.157Z,16.41
2023-03-25T17:21:37.334Z,16.18
2023-03-25T17:26:56.190Z,16.50
2023-03-25T17:32:01.123Z,16.24
2023-03-25T17:37:04.775Z,16.57
2023-03-25T17:42:20.998Z,16.64
2023-03-25T17:47:24.690Z,16.54
2023-03-25T17:52:30.732Z,16.12
2023-03-25T17:57:37.762Z,16.47
2023-03-25T18:02:40.665Z,16.53
2023-03-25T18:07:44.376Z,17.05
2023-03-25T18:12:49.673Z,17.24
2023-03-25T18:17:53.433Z,17.29
2023-03-25T18:22:57.388Z,17.44
2023-03-25T18:28:02.663Z,17.53
2023-03-25T18:33:06.349Z,17.50
2023-03-25T18:38:17.701Z,17.63
2023-03-25T18:43:23.337Z,17.42
2023-03-25T18:48:26.995Z,17.65
2023-03-25T18:53:31.132Z,17.67
2023-03-25T18:58:37.429Z,17.70
2023-03-25T19:03:41.163Z,17.95
2023-03-25T19:08:45.677Z,17.84
2023-03-25T19:13:51.426Z,18.01
2023-03-25T19:18:54.309Z,18.23
2023-03-25T19:23:57.931Z,18.55
2023-03-25T19:29:03.213Z,18.62
2023-03-25T19:34:06.842Z,18.53
2023-03-25T19:39:10.511Z,18.59
2023-03-25T19:44:15.838Z,18.34
2023-03-25T19:49:32.624Z,18.72
2023-03-25T19:54:42.805Z,18.58
2023-03-25T19:59:48.150Z,18.82
2023-03-25T20:04:53.011Z,18.83
2023-03-25T20:09:57.360Z,18.90
2023-03-25T20:15:04.895Z,18.94
2023-03-25T20:20:10.534Z,18.67
2023-03-25T20:25:14.713Z,18.92
2023-03-25T20:30:20.745Z,18.81
2023-03-25T20:35:24.454Z,18.98
2023-03-25T20:40:41.600Z,19.15
2023-03-25T20:45:49.186Z,19.06
2023-03-25T20:51:00.376Z,19.11
2023-03-25T20:56:05.100Z,19.02
2023-03-25T21:01:10.771Z,19.30
2023-03-25T21:11:24.995Z,19.28
2023-03-25T21:16:30.441Z,19.04
2023-03-25T21:21:34.849Z,19.09
2023-03-25T21:26:38.619Z,18.63
2023-03-25T21:31:44.021Z,18.61
2023-03-25T21:36:47.776Z,18.37
2023-03-25T21:41:51.888Z,18.44
2023-03-25T21:46:57.206Z,18.44
2023-03-25T21:52:00.996Z,18.59
2023-03-25T21:57:04.789Z,18.49
2023-03-25T22:02:11.277Z,18.28
2023-03-25T22:07:14.926Z,18.12
2023-03-25T22:12:18.601Z,17.57
2023-03-25T22:17:24.019Z,17.47
2023-03-25T22:22:27.723Z,17.00
2023-03-25T22:27:31.412Z,16.63
2023-03-25T22:32:37.490Z,16.77
2023-03-25T22:37:41.445Z,16.83
2023-03-25T22:42:45.100Z,17.11
2023-03-25T22:47:50.407Z,17.21
2023-03-25T22:52:54.099Z,16.77
2023-03-25T22:57:57.732Z,16.56
2023-03-25T23:03:03.114Z,16.61
2023-03-25T23:08:07.625Z,16.09
2023-03-25T23:13:11.327Z,16.06
2023-03-25T23:18:16.654Z,16.07
2023-03-25T23:23:20.472Z,15.86
2023-03-25T23:28:24.095Z,15.20
2023-03-25T23:33:29.441Z,15.40
2023-03-25T23:38:33.323Z,15.58
2023-03-25T23:43:37.781Z,15.50
2023-03-25T23:48:43.080Z,15.50
2023-03-25T23:53:47.866Z,15.52
2023-03-25T23:58:51.602Z,15.10
